Time;durP1;ratioP1;P1;durP2;ratioP2;P2;SDS_P1;SDS_P2;PMS_P1;PMS_P2;Temp;Humidity;BMP_temperature;BMP_pressure;BME280_temperature;BME280_humidity;BME280_pressure;Samples;Min_cycle;Max_cycle;Signal;HPM_P1;HPM_P2
2022/02/23 00:00:47;;;;;;;8.13;2.22;;;;;;;13.35;73.33;100532.19;2041515;29;20432;-76
2022/02/23 00:02:09;;;;;;;11.90;3.83;;;;;;;13.32;73.11;100526.91;2046937;28;20049;-76
2022/02/23 00:03:31;;;;;;;14.63;2.80;;;;;;;13.30;73.17;100526.03;2033819;29;20127;-76
2022/02/23 00:04:55;;;;;;;10.45;2.47;;;;;;;13.29;73.27;100526.91;2050429;28;20051;-76
2022/02/23 00:06:16;;;;;;;7.20;1.45;;;;;;;13.24;73.39;100518.97;2049195;28;20084;-76
2022/02/23 00:07:38;;;;;;;3.05;1.02;;;;;;;13.22;73.31;100520.72;2045849;29;20099;-76
2022/02/23 00:09:01;;;;;;;8.40;1.42;;;;;;;13.19;73.19;100522.50;2046902;29;20035;-75
2022/02/23 00:10:24;;;;;;;3.50;1.10;;;;;;;13.17;73.44;100525.13;2037642;29;20507;-75
2022/02/23 00:11:46;;;;;;;4.78;1.02;;;;;;;13.15;73.21;100525.13;2043361;28;20118;-75
2022/02/23 00:13:08;;;;;;;7.63;1.17;;;;;;;13.14;73.28;100526.00;2039041;29;20047;-76
2022/02/23 00:14:30;;;;;;;5.75;1.55;;;;;;;13.14;73.43;100522.47;2043594;29;20059;-75
2022/02/23 00:15:54;;;;;;;5.75;0.88;;;;;;;13.14;73.48;100522.47;2040374;29;20093;-76
2022/02/23 00:17:17;;;;;;;5.40;1.30;;;;;;;13.12;73.12;100533.09;2047107;29;20097;-75
2022/02/23 00:18:39;;;;;;;14.07;2.00;;;;;;;13.10;73.23;100523.31;2046818;29;20054;-76
2022/02/23 00:20:05;;;;;;;5.38;1.95;;;;;;;13.12;73.12;100529.50;2039141;29;20157;-76
2022/02/23 00:21:28;;;;;;;10.40;1.42;;;;;;;13.09;73.33;100530.38;2049292;28;20436;-76
2022/02/23 00:22:49;;;;;;;10.32;2.22;;;;;;;13.08;73.05;100528.59;2046662;29;20574;-76
2022/02/23 00:24:12;;;;;;;11.73;1.77;;;;;;;13.07;73.46;100529.50;2037558;29;20138;-75
2022/02/23 00:25:35;;;;;;;6.43;1.30;;;;;;;13.07;73.06;100528.59;2042006;29;20097;-75
2022/02/23 00:26:57;;;;;;;5.82;1.50;;;;;;;13.05;73.47;100531.28;2039049;29;20102;-76
2022/02/23 00:28:20;;;;;;;1.50;0.60;;;;;;;13.04;73.46;100518.91;2036183;29;20697;-76
2022/02/23 00:29:43;;;;;;;11.15;1.70;;;;;;;13.03;73.43;100527.72;2044024;29;20098;-76
2022/02/23 00:31:05;;;;;;;8.73;2.03;;;;;;;13.04;73.49;100525.97;2038631;29;20063;-75
2022/02/23 00:32:27;;;;;;;13.23;2.08;;;;;;;13.03;73.70;100518.88;2043265;28;20067;-75
2022/02/23 00:33:49;;;;;;;8.23;1.48;;;;;;;13.03;73.32;100527.72;2046820;29;20541;-76
2022/02/23 00:35:13;;;;;;;3.85;0.88;;;;;;;13.03;73.50;100521.53;2044863;28;20491;-76
2022/02/23 00:36:35;;;;;;;6.65;1.20;;;;;;;13.00;73.56;100522.41;2046994;28;20146;-76
2022/02/23 00:37:58;;;;;;;10.32;1.33;;;;;;;13.01;73.32;100520.63;2045026;29;20122;-76
2022/02/23 00:39:20;;;;;;;9.57;1.95;;;;;;;12.99;73.53;100507.41;2038581;29;20091;-75
2022/02/23 00:40:42;;;;;;;10.43;1.83;;;;;;;12.99;73.77;100518.03;2028593;29;20556;-76
2022/02/23 00:42:05;;;;;;;8.85;1.60;;;;;;;12.97;73.69;100514.47;2043744;29;20102;-75
2022/02/23 00:43:28;;;;;;;5.75;1.63;;;;;;;12.97;73.44;100513.59;2046878;29;20063;-75
2022/02/23 00:44:51;;;;;;;12.23;1.17;;;;;;;12.94;73.51;100511.78;2038209;29;20075;-76
2022/02/23 00:46:13;;;;;;;4.53;0.95;;;;;;;12.96;73.57;100511.81;2038935;29;20518;-76
2022/02/23 00:47:37;;;;;;;6.63;1.05;;;;;;;12.96;73.79;100511.81;2054419;28;20050;-76
2022/02/23 00:49:00;;;;;;;3.72;0.75;;;;;;;12.96;73.68;100514.47;2041092;29;20051;-75
2022/02/23 00:50:24;;;;;;;4.40;1.33;;;;;;;12.97;73.80;100510.94;2028459;29;20056;-76
2022/02/23 00:51:47;;;;;;;11.18;2.30;;;;;;;12.96;73.91;100515.34;2035803;29;20043;-76
2022/02/23 00:53:08;;;;;;;4.55;0.90;;;;;;;12.95;74.01;100517.97;2043625;28;20082;-76
2022/02/23 00:54:31;;;;;;;11.88;2.00;;;;;;;12.97;73.75;100518.88;2046504;29;20059;-76
2022/02/23 00:55:53;;;;;;;4.53;1.05;;;;;;;12.96;73.87;100509.16;2048916;29;20047;-76
2022/02/23 00:57:16;;;;;;;13.65;1.50;;;;;;;12.98;73.99;100518.00;2036076;29;20135;-75
2022/02/23 00:58:38;;;;;;;7.28;1.45;;;;;;;12.98;73.81;100505.66;2038756;29;20059;-76
2022/02/23 01:00:01;;;;;;;6.13;2.10;;;;;;;13.00;74.35;100500.31;2039578;29;20047;-76
2022/02/23 01:01:23;;;;;;;7.32;1.58;;;;;;;13.01;73.85;100499.44;2038336;29;20424;-76
2022/02/23 01:02:45;;;;;;;9.45;1.13;;;;;;;13.02;74.20;100502.09;2044096;29;20093;-76
2022/02/23 01:04:10;;;;;;;3.80;0.80;;;;;;;13.06;74.14;100498.56;2041767;29;20047;-75
2022/02/23 01:05:33;;;;;;;9.38;2.03;;;;;;;13.09;74.21;100505.66;2046848;28;20039;-75
2022/02/23 01:06:55;;;;;;;4.78;1.30;;;;;;;13.07;74.14;100494.16;2046583;29;20051;-76
2022/02/23 01:08:18;;;;;;;14.82;1.88;;;;;;;13.09;74.02;100497.69;2035792;29;20058;-76
2022/02/23 01:09:40;;;;;;;4.53;0.75;;;;;;;13.12;74.17;100497.72;2044206;29;20047;-76
2022/02/23 01:11:03;;;;;;;8.38;1.38;;;;;;;13.15;74.08;100500.38;2032635;29;20425;-75
2022/02/23 01:12:25;;;;;;;9.05;1.60;;;;;;;13.15;74.13;100495.09;2041491;29;20036;-76
2022/02/23 01:13:47;;;;;;;4.10;0.88;;;;;;;13.18;74.13;100492.44;2038722;29;20102;-75
2022/02/23 01:15:10;;;;;;;9.93;1.60;;;;;;;13.21;74.43;100494.19;2036113;29;20052;-76
2022/02/23 01:16:32;;;;;;;3.03;1.02;;;;;;;13.23;74.27;100489.78;2035231;29;20083;-76
2022/02/23 01:17:55;;;;;;;3.80;1.10;;;;;;;13.26;74.07;100489.81;2038420;29;20487;-76
2022/02/23 01:19:18;;;;;;;11.60;1.40;;;;;;;13.28;74.32;100493.31;2044801;29;20181;-75
2022/02/23 01:20:42;;;;;;;8.88;1.35;;;;;;;13.30;74.15;100491.56;2046446;29;20094;-76
2022/02/23 01:22:04;;;;;;;11.27;1.58;;;;;;;13.28;74.00;100488.91;2040350;29;20052;-76
2022/02/23 01:23:27;;;;;;;7.47;1.35;;;;;;;13.29;73.99;100479.19;2035871;29;20143;-75
2022/02/23 01:24:50;;;;;;;3.78;1.25;;;;;;;13.29;73.87;100477.41;2045657;29;20047;-76
2022/02/23 01:26:13;;;;;;;8.63;2.60;;;;;;;13.29;73.78;100474.78;2042507;29;20051;-75
2022/02/23 01:27:35;;;;;;;5.03;1.25;;;;;;;13.27;73.84;100479.19;2046178;29;20427;-76
2022/02/23 01:28:59;;;;;;;6.03;1.60;;;;;;;13.27;73.96;100471.22;2046303;29;20471;-76
2022/02/23 01:30:21;;;;;;;7.63;1.33;;;;;;;13.28;74.00;100472.13;2029870;29;20143;-76
2022/02/23 01:31:44;;;;;;;6.65;1.85;;;;;;;13.29;73.77;100463.28;2040349;29;20043;-76
2022/02/23 01:33:07;;;;;;;5.07;1.00;;;;;;;13.27;73.98;100455.31;2046633;28;20470;-76
2022/02/23 01:34:29;;;;;;;7.68;1.35;;;;;;;13.28;73.79;100451.78;2051320;28;20089;-76
2022/02/23 01:35:54;;;;;;;11.77;2.20;;;;;;;13.32;74.07;100453.56;2046372;28;20062;-76
2022/02/23 01:37:15;;;;;;;2.85;0.82;;;;;;;13.30;74.07;100454.44;2033175;29;20627;-75
2022/02/23 01:38:38;;;;;;;11.57;1.35;;;;;;;13.31;73.88;100456.22;2043583;28;20063;-76
2022/02/23 01:40:01;;;;;;;8.50;1.95;;;;;;;13.30;73.98;100460.63;2046009;29;20114;-76
2022/02/23 01:41:23;;;;;;;13.07;1.15;;;;;;;13.32;73.91;100464.19;2030437;29;20508;-76
2022/02/23 01:42:45;;;;;;;3.42;0.95;;;;;;;13.32;73.91;100464.19;2035972;29;20040;-76
2022/02/23 01:44:07;;;;;;;8.35;1.20;;;;;;;13.34;73.74;100466.81;2043091;28;20043;-76
2022/02/23 01:45:30;;;;;;;6.47;1.05;;;;;;;13.33;73.79;100468.56;2029998;29;20044;-77
2022/02/23 01:46:53;;;;;;;6.90;1.52;;;;;;;13.34;74.12;100472.09;2041445;29;20051;-76
2022/02/23 01:48:16;;;;;;;5.28;1.80;;;;;;;13.35;74.03;100461.50;2046271;28;20138;-76
2022/02/23 01:49:38;;;;;;;4.30;1.15;;;;;;;13.35;73.87;100461.50;2048580;28;20142;-76
2022/02/23 01:51:01;;;;;;;2.22;0.32;;;;;;;13.37;73.46;100467.72;2053649;28;20046;-76
2022/02/23 01:52:25;;;;;;;6.78;1.35;;;;;;;13.34;73.75;100465.03;2040205;29;20874;-76
2022/02/23 01:53:46;;;;;;;4.18;0.90;;;;;;;13.35;73.56;100463.28;2036398;29;20056;-76
2022/02/23 01:55:10;;;;;;;1.67;0.43;;;;;;;13.35;73.64;100461.50;2045393;28;20047;-76
2022/02/23 01:56:32;;;;;;;4.40;0.70;;;;;;;13.34;73.53;100462.38;2045803;29;20090;-76
2022/02/23 01:57:54;;;;;;;4.88;0.88;;;;;;;13.33;73.53;100462.38;2038287;29;20587;-76
2022/02/23 01:59:17;;;;;;;14.23;1.13;;;;;;;13.34;73.46;100470.34;2050860;28;20054;-76
2022/02/23 02:00:39;;;;;;;12.75;2.13;;;;;;;13.35;73.34;100464.16;2044436;28;20055;-76
2022/02/23 02:02:02;;;;;;;10.45;2.85;;;;;;;13.35;73.59;100469.47;2048384;28;20078;-76
2022/02/23 02:03:24;;;;;;;2.65;0.35;;;;;;;13.35;73.32;100469.47;2033462;29;20048;-76
2022/02/23 02:04:47;;;;;;;4.20;0.65;;;;;;;13.35;73.26;100482.72;2035791;29;20048;-76
2022/02/23 02:06:11;;;;;;;6.43;1.23;;;;;;;13.37;73.22;100482.72;2044282;28;20146;-76
2022/02/23 02:07:35;;;;;;;12.10;1.88;;;;;;;13.34;73.38;100480.06;2046118;29;20080;-76
2022/02/23 02:08:57;;;;;;;7.10;1.08;;;;;;;13.34;73.43;100493.31;2038426;29;20062;-76
2022/02/23 02:10:20;;;;;;;13.68;2.35;;;;;;;13.32;73.32;100492.47;2030327;29;20047;-76
2022/02/23 02:11:43;;;;;;;11.18;1.58;;;;;;;13.31;73.19;100493.34;2040828;29;20055;-76
2022/02/23 02:13:05;;;;;;;9.88;1.50;;;;;;;13.31;72.97;100496.88;2048098;29;20086;-76
2022/02/23 02:14:28;;;;;;;12.35;1.75;;;;;;;13.28;73.42;100495.97;2037568;29;20449;-76
2022/02/23 02:15:50;;;;;;;6.97;2.05;;;;;;;13.28;73.46;100495.97;2045989;29;20047;-76
2022/02/23 02:17:12;;;;;;;2.97;1.25;;;;;;;13.28;73.10;100499.50;2045688;28;20062;-76
2022/02/23 02:18:34;;;;;;;9.20;2.03;;;;;;;13.30;73.13;100503.06;2032702;29;20523;-76
2022/02/23 02:19:55;;;;;;;6.45;1.00;;;;;;;13.27;73.17;100499.50;2027788;29;20044;-76
2022/02/23 02:21:19;;;;;;;8.73;1.75;;;;;;;13.28;73.47;100494.19;2048751;28;20487;-76
2022/02/23 02:22:42;;;;;;;12.18;2.70;;;;;;;13.29;73.01;100503.03;2042833;28;20071;-76
2022/02/23 02:24:05;;;;;;;6.90;1.42;;;;;;;13.27;73.17;100499.50;2038275;29;20040;-76
2022/02/23 02:25:28;;;;;;;8.27;1.10;;;;;;;13.28;73.65;100493.31;2046200;29;20058;-76
2022/02/23 02:26:51;;;;;;;10.88;1.95;;;;;;;13.30;73.53;100499.50;2038007;29;20043;-76
2022/02/23 02:28:13;;;;;;;10.57;1.25;;;;;;;13.29;73.26;100495.97;2044515;28;20106;-76
2022/02/23 02:29:36;;;;;;;19.70;1.75;;;;;;;13.31;73.05;100494.22;2044959;28;20051;-76
2022/02/23 02:30:59;;;;;;;9.13;1.45;;;;;;;13.33;73.25;100497.72;2038066;29;20499;-76
2022/02/23 02:32:22;;;;;;;8.32;1.67;;;;;;;13.34;73.44;100490.66;2029325;29;20040;-76
2022/02/23 02:33:44;;;;;;;6.88;0.95;;;;;;;13.37;73.39;100488.91;2043790;29;20051;-76
2022/02/23 02:35:07;;;;;;;8.95;1.80;;;;;;;13.40;73.21;100494.19;2045134;28;20043;-76
2022/02/23 02:36:28;;;;;;;10.30;2.00;;;;;;;13.42;73.25;100487.13;2038326;29;20143;-76
2022/02/23 02:37:53;;;;;;;8.48;1.42;;;;;;;13.46;73.23;100491.53;2043071;29;20527;-76
2022/02/23 02:39:15;;;;;;;4.35;1.38;;;;;;;13.48;73.15;100483.59;2046021;29;20142;-76
2022/02/23 02:40:38;;;;;;;9.07;1.70;;;;;;;13.50;73.01;100485.38;2045680;28;20495;-76
2022/02/23 02:42:00;;;;;;;5.57;1.60;;;;;;;13.53;73.01;100487.13;2045922;29;20134;-76
2022/02/23 02:43:23;;;;;;;5.13;1.00;;;;;;;13.52;73.17;100482.72;2040191;29;20441;-76
2022/02/23 02:44:44;;;;;;;9.48;1.13;;;;;;;13.53;72.99;100474.75;2050371;28;20058;-75
2022/02/23 02:46:07;;;;;;;7.68;1.10;;;;;;;13.54;73.05;100471.22;2041319;29;20044;-76
2022/02/23 02:47:28;;;;;;;7.85;1.85;;;;;;;13.56;73.12;100471.22;2037917;29;20146;-76
2022/02/23 02:48:51;;;;;;;4.82;1.88;;;;;;;13.57;72.84;100463.25;2029676;29;20056;-76
2022/02/23 02:50:14;;;;;;;6.40;1.02;;;;;;;13.59;72.87;100462.38;2035605;29;20056;-76
2022/02/23 02:51:37;;;;;;;9.02;1.73;;;;;;;13.61;73.13;100469.44;2040509;29;20051;-76
2022/02/23 02:53:01;;;;;;;6.53;1.50;;;;;;;13.65;73.11;100462.38;2037757;29;20051;-76
2022/02/23 02:54:22;;;;;;;4.85;1.23;;;;;;;13.65;73.11;100467.69;2030104;29;20112;-75
2022/02/23 02:55:45;;;;;;;6.97;2.10;;;;;;;13.64;73.03;100466.78;2041906;29;20054;-76
2022/02/23 02:57:06;;;;;;;12.15;1.60;;;;;;;13.66;73.12;100465.00;2045609;28;20113;-75
2022/02/23 02:58:30;;;;;;;5.47;0.95;;;;;;;13.68;73.05;100459.69;2045389;28;20106;-76
2022/02/23 02:59:51;;;;;;;5.60;1.50;;;;;;;13.66;73.12;100458.81;2047921;28;20094;-76
2022/02/23 03:01:14;;;;;;;5.78;1.08;;;;;;;13.67;72.88;100463.22;2045511;29;20063;-76
2022/02/23 03:02:37;;;;;;;15.50;2.30;;;;;;;13.66;72.94;100459.69;2040133;29;20047;-76
2022/02/23 03:04:00;;;;;;;5.95;1.95;;;;;;;13.67;73.00;100449.97;2040536;29;20107;-76
2022/02/23 03:05:23;;;;;;;5.97;0.82;;;;;;;13.66;72.89;100457.03;2037954;29;20056;-76
2022/02/23 03:06:45;;;;;;;12.20;1.58;;;;;;;13.65;72.94;100460.59;2043142;29;20175;-76
2022/02/23 03:08:09;;;;;;;8.68;3.22;;;;;;;13.66;73.01;100454.38;2035038;29;20055;-76
2022/02/23 03:09:31;;;;;;;9.32;1.50;;;;;;;13.63;73.07;100454.41;2045661;28;20058;-76
2022/02/23 03:10:53;;;;;;;6.55;0.85;;;;;;;13.61;73.03;100465.91;2047903;29;20071;-76
2022/02/23 03:12:16;;;;;;;11.48;2.10;;;;;;;13.60;73.05;100458.81;2045795;29;20623;-76
2022/02/23 03:13:38;;;;;;;6.03;0.95;;;;;;;13.62;73.06;100462.38;2037475;29;20047;-76
2022/02/23 03:15:00;;;;;;;5.97;0.95;;;;;;;13.63;72.89;100458.84;2035243;29;20399;-76
2022/02/23 03:16:23;;;;;;;2.92;0.88;;;;;;;13.63;72.80;100456.19;2045073;29;20051;-76
2022/02/23 03:17:46;;;;;;;5.53;3.38;;;;;;;13.63;72.91;100461.47;2043020;29;20067;-76
2022/02/23 03:19:07;;;;;;;10.38;1.02;;;;;;;13.63;72.73;100466.78;2037415;29;20047;-76
2022/02/23 03:20:30;;;;;;;4.90;0.98;;;;;;;13.64;72.84;100466.78;2043079;29;20055;-76
2022/02/23 03:21:52;;;;;;;11.30;1.40;;;;;;;13.67;72.54;100463.22;2045755;29;20130;-76
2022/02/23 03:23:17;;;;;;;5.15;0.88;;;;;;;13.69;72.59;100465.00;2044544;29;20058;-76
2022/02/23 03:24:38;;;;;;;2.53;0.50;;;;;;;13.69;72.55;100462.34;2040227;29;20051;-76
2022/02/23 03:26:01;;;;;;;6.90;1.52;;;;;;;13.71;72.77;100473.84;2036351;29;20103;-76
2022/02/23 03:27:25;;;;;;;10.75;1.45;;;;;;;13.72;72.63;100470.28;2035189;29;20123;-76
2022/02/23 03:28:48;;;;;;;7.88;2.60;;;;;;;13.74;72.64;100473.84;2043503;29;20078;-76
2022/02/23 03:30:11;;;;;;;3.72;0.80;;;;;;;13.76;72.73;100471.19;2045406;29;20043;-76
2022/02/23 03:31:33;;;;;;;13.93;1.67;;;;;;;13.76;72.94;100471.19;2024683;29;20064;-76
2022/02/23 03:32:56;;;;;;;4.80;1.38;;;;;;;13.77;72.76;100475.59;2043236;29;20480;-76
2022/02/23 03:34:18;;;;;;;3.53;0.90;;;;;;;13.78;72.85;100480.03;2037755;29;20143;-76
2022/02/23 03:35:43;;;;;;;7.43;1.23;;;;;;;13.80;72.63;100484.44;2032443;29;20040;-76
2022/02/23 03:37:06;;;;;;;6.13;0.88;;;;;;;13.79;72.66;100485.31;2042918;29;20150;-76
2022/02/23 03:38:30;;;;;;;3.40;0.82;;;;;;;13.82;72.67;100489.75;2045714;28;20499;-76
2022/02/23 03:39:53;;;;;;;5.47;1.35;;;;;;;13.81;72.65;100495.94;2045817;29;20495;-75
2022/02/23 03:41:15;;;;;;;8.27;0.68;;;;;;;13.83;72.83;100502.13;2039583;28;20047;-76
2022/02/23 03:42:37;;;;;;;6.78;0.80;;;;;;;13.83;72.98;100492.41;2038426;29;20139;-76
2022/02/23 03:43:58;;;;;;;11.25;1.23;;;;;;;13.84;72.63;100499.47;2045541;28;20518;-77
2022/02/23 03:45:21;;;;;;;7.35;1.35;;;;;;;13.87;72.62;100496.81;2039837;29;20107;-76
2022/02/23 03:46:44;;;;;;;8.38;2.05;;;;;;;13.87;72.41;100499.44;2045588;28;20047;-75
2022/02/23 03:48:07;;;;;;;7.70;1.58;;;;;;;13.89;72.75;100495.03;2037890;29;20075;-76
2022/02/23 03:49:29;;;;;;;9.57;2.17;;;;;;;13.90;72.63;100496.81;2045455;28;20051;-76
2022/02/23 03:50:52;;;;;;;8.65;1.50;;;;;;;13.92;72.60;100497.66;2053452;28;20070;-75
2022/02/23 03:52:15;;;;;;;9.00;1.60;;;;;;;13.95;72.77;100494.13;2047356;29;20660;-76
2022/02/23 03:53:39;;;;;;;10.82;2.50;;;;;;;13.96;72.46;100496.78;2040223;28;20083;-76
2022/02/23 03:55:02;;;;;;;11.63;2.50;;;;;;;13.95;72.36;100497.66;2030025;29;20116;-76
2022/02/23 03:56:40;;;;;;;7.30;2.05;;;;;;;13.98;72.58;100494.09;2043242;29;20129;-76
2022/02/23 03:58:02;;;;;;;15.00;3.33;;;;;;;13.98;72.54;100491.44;2040177;29;20547;-76
2022/02/23 03:59:25;;;;;;;10.38;2.10;;;;;;;13.98;72.60;100489.69;2040071;29;20584;-76
2022/02/23 04:00:47;;;;;;;8.85;1.60;;;;;;;14.00;72.15;100489.69;2040040;29;20058;-76
2022/02/23 04:02:10;;;;;;;6.88;1.80;;;;;;;14.00;72.39;100492.34;2040192;29;20586;-76
2022/02/23 04:03:32;;;;;;;6.88;1.95;;;;;;;14.02;72.26;100489.69;2022136;29;20048;-76
2022/02/23 04:04:55;;;;;;;15.05;5.18;;;;;;;14.03;72.00;100492.34;2040683;28;20760;-76
2022/02/23 04:06:19;;;;;;;15.88;5.55;;;;;;;14.04;72.00;100486.16;2044836;29;20051;-76
2022/02/23 04:07:42;;;;;;;19.00;6.63;;;;;;;14.03;72.20;100484.38;2037786;29;20056;-76
2022/02/23 04:09:08;;;;;;;7.25;2.83;;;;;;;14.03;71.86;100480.84;2029873;29;20071;-76
2022/02/23 04:10:31;;;;;;;14.82;4.80;;;;;;;13.99;72.38;100487.91;2036799;29;20048;-76
2022/02/23 04:11:53;;;;;;;11.60;4.10;;;;;;;13.98;72.06;100482.63;2045423;28;20065;-76
2022/02/23 04:13:16;;;;;;;1.33;0.85;;;;;;;13.97;72.01;100484.41;2036780;29;20538;-77
2022/02/23 04:14:39;;;;;;;13.90;2.83;;;;;;;13.98;72.29;100482.63;2042293;29;20047;-76
2022/02/23 04:16:03;;;;;;;6.07;2.40;;;;;;;13.98;72.07;100487.03;2045456;29;20039;-76
2022/02/23 04:17:26;;;;;;;13.93;2.40;;;;;;;14.00;72.31;100483.50;2043670;29;20138;-76
2022/02/23 04:18:48;;;;;;;14.02;3.35;;;;;;;14.00;72.29;100481.72;2045282;29;20147;-76
2022/02/23 04:20:12;;;;;;;10.10;2.80;;;;;;;14.01;71.97;100480.84;2039002;29;20396;-76
2022/02/23 04:21:35;;;;;;;14.10;2.75;;;;;;;14.00;72.26;100479.06;2043323;29;20051;-76
2022/02/23 04:22:58;;;;;;;17.42;2.70;;;;;;;13.99;72.37;100485.25;2045334;29;20571;-76
2022/02/23 04:24:22;;;;;;;10.55;2.92;;;;;;;14.01;72.12;100488.81;2045415;29;20369;-76
2022/02/23 04:25:44;;;;;;;15.57;4.60;;;;;;;14.00;71.72;100487.03;2043173;29;20091;-77
2022/02/23 04:27:07;;;;;;;12.35;3.38;;;;;;;14.03;72.00;100488.81;2047612;28;20059;-76
2022/02/23 04:28:31;;;;;;;12.65;2.75;;;;;;;14.03;72.24;100496.78;2032111;29;20666;-75
2022/02/23 04:29:53;;;;;;;8.68;1.92;;;;;;;14.04;72.14;100487.94;2042075;29;20142;-77
2022/02/23 04:31:16;;;;;;;10.85;1.58;;;;;;;14.06;72.22;100492.31;2039953;29;20043;-76
2022/02/23 04:32:39;;;;;;;13.43;1.85;;;;;;;14.06;72.08;100487.00;2029711;29;20461;-76
2022/02/23 04:34:02;;;;;;;6.05;1.13;;;;;;;14.06;71.98;100492.31;2042800;28;20138;-76
2022/02/23 04:35:24;;;;;;;5.32;1.10;;;;;;;14.06;71.99;100494.97;2038298;29;20110;-75
2022/02/23 04:36:47;;;;;;;8.05;1.42;;;;;;;14.08;72.28;100493.22;2044233;29;20487;-76
2022/02/23 04:38:10;;;;;;;11.82;1.45;;;;;;;14.07;72.11;100493.22;2046326;29;20055;-76
2022/02/23 04:39:33;;;;;;;10.27;1.80;;;;;;;14.09;72.14;100486.13;2035386;29;20048;-76
2022/02/23 04:40:55;;;;;;;9.00;1.90;;;;;;;14.08;72.06;100492.31;2046238;29;20039;-76
2022/02/23 04:42:18;;;;;;;5.15;1.45;;;;;;;14.08;72.05;100492.31;2042210;29;20059;-76
2022/02/23 04:43:41;;;;;;;10.43;1.15;;;;;;;14.07;72.45;100488.78;2046991;28;20053;-76
2022/02/23 04:45:03;;;;;;;8.10;1.17;;;;;;;14.10;72.14;100491.44;2046181;28;20047;-76
2022/02/23 04:46:25;;;;;;;6.78;1.33;;;;;;;14.11;72.06;100492.34;2038791;29;20118;-76
2022/02/23 04:47:48;;;;;;;6.80;1.13;;;;;;;14.12;72.38;100487.00;2039737;29;20082;-76
2022/02/23 04:49:10;;;;;;;9.60;1.45;;;;;;;14.11;72.17;100485.22;2038877;29;20051;-76
2022/02/23 04:50:33;;;;;;;15.80;5.72;;;;;;;14.12;72.42;100480.78;2051498;28;20046;-76
2022/02/23 04:51:55;;;;;;;17.85;5.40;;;;;;;14.14;72.05;100479.03;2041349;29;20122;-76
2022/02/23 04:53:18;;;;;;;19.45;6.25;;;;;;;14.14;72.38;100477.25;2038510;29;20087;-76
2022/02/23 04:54:42;;;;;;;16.10;6.85;;;;;;;14.16;72.29;100471.94;2036444;29;20147;-76
2022/02/23 04:56:05;;;;;;;10.75;3.45;;;;;;;14.13;72.32;100462.22;2048918;28;20440;-76
2022/02/23 04:57:28;;;;;;;12.98;3.15;;;;;;;14.13;72.55;100464.88;2037905;29;20598;-76
2022/02/23 04:58:50;;;;;;;10.65;2.72;;;;;;;14.13;72.63;100466.63;2044279;29;20047;-76
2022/02/23 05:00:15;;;;;;;12.80;3.55;;;;;;;14.12;72.49;100463.09;2040490;29;20524;-76
2022/02/23 05:01:38;;;;;;;11.35;3.35;;;;;;;14.10;72.52;100466.66;2044866;28;20050;-76
2022/02/23 05:02:59;;;;;;;28.30;9.18;;;;;;;14.12;72.89;100470.19;2057117;28;20039;-76
2022/02/23 05:04:22;;;;;;;19.67;4.88;;;;;;;14.12;72.69;100462.22;2036103;28;20071;-76
2022/02/23 05:05:45;;;;;;;11.07;3.75;;;;;;;14.14;72.67;100468.41;2052313;28;20063;-76
2022/02/23 05:07:08;;;;;;;13.68;3.40;;;;;;;14.13;72.50;100470.19;2040539;29;20132;-76
2022/02/23 05:08:31;;;;;;;11.13;3.03;;;;;;;14.12;72.91;100465.75;2038451;29;20059;-76
2022/02/23 05:09:56;;;;;;;11.40;4.15;;;;;;;14.15;72.59;100476.38;2043902;29;20389;-77
2022/02/23 05:11:18;;;;;;;10.73;3.20;;;;;;;14.14;72.79;100485.22;2046626;28;20051;-76
2022/02/23 05:12:41;;;;;;;13.05;2.17;;;;;;;14.14;72.58;100487.00;2038624;29;20139;-76
2022/02/23 05:14:03;;;;;;;13.07;2.08;;;;;;;14.14;72.80;100490.53;2038735;29;20100;-76
2022/02/23 05:15:26;;;;;;;13.65;2.17;;;;;;;14.14;72.81;100490.53;2046548;28;20491;-77
2022/02/23 05:16:49;;;;;;;10.30;1.40;;;;;;;14.13;72.73;100507.34;2046450;29;20063;-77
2022/02/23 05:18:12;;;;;;;11.35;1.70;;;;;;;14.14;72.58;100508.22;2030827;29;20091;-77
2022/02/23 05:19:35;;;;;;;8.55;2.15;;;;;;;14.13;72.99;100510.00;2036194;29;20054;-76
2022/02/23 05:20:58;;;;;;;10.50;2.20;;;;;;;14.10;72.95;100518.00;2036356;29;20385;-76
2022/02/23 05:22:21;;;;;;;11.65;2.97;;;;;;;14.07;73.02;100512.66;2030832;29;20052;-76
2022/02/23 05:23:43;;;;;;;11.95;2.00;;;;;;;14.08;73.34;100514.44;2032667;29;20043;-76
2022/02/23 05:25:08;;;;;;;13.20;2.08;;;;;;;14.12;73.36;100528.56;2044108;29;20483;-75
2022/02/23 05:26:31;;;;;;;14.85;2.70;;;;;;;14.11;73.44;100524.19;2030939;29;20044;-76
2022/02/23 05:27:53;;;;;;;10.18;1.30;;;;;;;14.11;73.37;100532.16;2036116;29;20613;-75
2022/02/23 05:29:16;;;;;;;8.13;2.00;;;;;;;14.07;73.02;100531.25;2040179;29;20082;-75
2022/02/23 05:30:38;;;;;;;11.75;2.05;;;;;;;14.06;73.25;100536.56;2046274;29;20105;-75
2022/02/23 05:32:00;;;;;;;13.10;2.53;;;;;;;14.07;73.42;100535.69;2041654;29;20048;-75
2022/02/23 05:33:23;;;;;;;4.80;1.48;;;;;;;14.06;73.24;100534.78;2054294;28;20047;-75
2022/02/23 05:34:46;;;;;;;6.38;1.23;;;;;;;14.07;73.52;100536.56;2047326;28;20058;-75
2022/02/23 05:36:07;;;;;;;8.68;1.73;;;;;;;14.08;73.52;100541.00;2048652;28;20055;-75
2022/02/23 05:37:29;;;;;;;8.30;1.20;;;;;;;14.07;73.60;100547.19;2046124;29;20051;-75
2022/02/23 05:38:52;;;;;;;10.20;1.77;;;;;;;14.06;73.68;100539.22;2040901;29;20479;-75
2022/02/23 05:40:16;;;;;;;11.65;1.98;;;;;;;14.07;73.70;100554.25;2040282;29;20059;-75
2022/02/23 05:41:39;;;;;;;13.43;2.28;;;;;;;14.02;74.05;100554.28;2042307;29;20131;-76
2022/02/23 05:43:01;;;;;;;7.68;1.60;;;;;;;14.00;74.08;100557.81;2041332;28;20043;-75
2022/02/23 05:44:24;;;;;;;6.05;1.67;;;;;;;13.96;73.97;100560.47;2045901;29;20055;-75
2022/02/23 05:45:45;;;;;;;6.18;0.90;;;;;;;13.93;74.17;100562.25;2038087;29;20491;-75
2022/02/23 05:47:08;;;;;;;9.75;1.27;;;;;;;13.87;74.45;100559.59;2040668;29;20435;-75
2022/02/23 05:48:31;;;;;;;4.97;1.15;;;;;;;13.83;74.67;100565.81;2046036;29;20105;-75
2022/02/23 05:49:52;;;;;;;9.18;1.42;;;;;;;13.80;75.12;100563.13;2038201;29;20053;-75
2022/02/23 05:51:36;;;;;;;9.02;1.88;;;;;;;13.79;75.02;100570.22;2037860;29;20056;-75
2022/02/23 05:52:59;;;;;;;15.65;2.60;;;;;;;13.74;75.25;100568.44;2040764;29;20051;-75
2022/02/23 05:54:21;;;;;;;12.00;2.70;;;;;;;13.73;75.21;100572.88;2045849;28;20051;-75
2022/02/23 05:55:45;;;;;;;9.00;3.58;;;;;;;13.75;75.20;100581.72;2046330;28;20672;-75
2022/02/23 05:57:08;;;;;;;19.15;6.00;;;;;;;13.76;75.57;100575.53;2037988;29;20094;-75
2022/02/23 05:58:31;;;;;;;15.38;6.60;;;;;;;13.77;75.50;100579.97;2043362;29;20067;-75
2022/02/23 05:59:53;;;;;;;18.27;6.93;;;;;;;13.78;75.23;100583.50;2038267;29;20735;-75
2022/02/23 06:01:15;;;;;;;19.10;9.32;;;;;;;13.78;75.63;100578.19;2046085;29;20767;-75
2022/02/23 06:02:37;;;;;;;21.38;6.88;;;;;;;13.79;75.71;100570.22;2040619;29;20056;-75
2022/02/23 06:04:00;;;;;;;19.25;6.53;;;;;;;13.79;75.47;100575.53;2030541;29;20059;-74
2022/02/23 06:05:23;;;;;;;19.73;7.03;;;;;;;13.81;75.56;100587.03;2035351;29;20480;-75
2022/02/23 06:06:46;;;;;;;16.67;6.68;;;;;;;13.79;75.76;100582.59;2035983;29;20051;-75
2022/02/23 06:08:08;;;;;;;18.40;7.35;;;;;;;13.79;76.04;100587.91;2041611;29;20095;-75
2022/02/23 06:09:32;;;;;;;17.55;7.35;;;;;;;13.77;76.01;100587.91;2039896;28;20051;-75
2022/02/23 06:10:56;;;;;;;17.48;7.75;;;;;;;13.76;76.04;100585.25;2043544;29;20059;-74
2022/02/23 06:12:18;;;;;;;16.80;6.18;;;;;;;13.74;76.14;100579.06;2030253;29;20429;-75
2022/02/23 06:13:40;;;;;;;13.98;5.95;;;;;;;13.76;76.60;100594.09;2035447;29;20126;-75
2022/02/23 06:15:03;;;;;;;14.90;5.25;;;;;;;13.76;76.37;100587.91;2043162;29;20134;-75
2022/02/23 06:16:27;;;;;;;14.30;4.97;;;;;;;13.73;76.74;100583.47;2031279;29;20048;-75
2022/02/23 06:17:48;;;;;;;10.75;3.60;;;;;;;13.72;76.83;100594.97;2036045;29;20067;-74
2022/02/23 06:19:10;;;;;;;12.65;3.90;;;;;;;13.74;76.89;100602.94;2045203;29;20077;-74
2022/02/23 06:20:33;;;;;;;11.98;4.72;;;;;;;13.75;76.76;100604.72;2045743;29;20156;-74
2022/02/23 06:21:55;;;;;;;9.10;3.70;;;;;;;13.72;76.58;100605.59;2044716;29;20388;-75
2022/02/23 06:23:18;;;;;;;13.48;3.33;;;;;;;13.69;76.86;100615.31;2034285;29;20849;-75